createdAt,value
2018-06-29T00:02:14.157Z,101102.16
2018-06-29T00:04:44.696Z,101100.00
2018-06-29T00:07:15.614Z,101096.55
2018-06-29T00:09:45.885Z,101093.94
2018-06-29T00:12:17.079Z,101091.77
2018-06-29T00:14:49.202Z,101096.65
2018-06-29T00:17:18.572Z,101094.91
2018-06-29T00:19:49.553Z,101089.27
2018-06-29T00:22:21.409Z,101084.91
2018-06-29T00:24:52.800Z,101088.88
2018-06-29T00:27:24.291Z,101088.03
2018-06-29T00:29:53.456Z,101086.29
2018-06-29T00:32:24.045Z,101095.55
2018-06-29T00:34:54.569Z,101098.64
2018-06-29T00:37:24.486Z,101095.17
2018-06-29T00:39:55.334Z,101093.85
2018-06-29T00:42:27.029Z,101094.34
2018-06-29T00:44:58.822Z,101093.93
2018-06-29T00:47:28.317Z,101097.49
2018-06-29T00:49:58.767Z,101105.43
2018-06-29T00:52:28.688Z,101105.49
2018-06-29T00:55:00.611Z,101099.80
2018-06-29T00:57:31.665Z,101104.64
2018-06-29T01:00:04.556Z,101102.88
2018-06-29T01:02:33.749Z,101108.61
2018-06-29T01:05:04.316Z,101110.84
2018-06-29T01:07:35.053Z,101102.06
2018-06-29T01:10:04.975Z,101103.39
2018-06-29T01:12:34.119Z,101107.80
2018-06-29T01:15:04.145Z,101103.44
2018-06-29T01:17:35.196Z,101100.75
2018-06-29T01:20:04.527Z,101095.96
2018-06-29T01:22:36.477Z,101094.66
2018-06-29T01:25:06.469Z,101087.19
2018-06-29T01:27:38.123Z,101080.63
2018-06-29T01:30:08.191Z,101080.66
2018-06-29T01:32:38.066Z,101078.07
2018-06-29T01:35:08.337Z,101079.84
2018-06-29T01:37:37.555Z,101084.23
2018-06-29T01:40:08.234Z,101089.09
2018-06-29T01:42:38.964Z,101088.66
2018-06-29T01:45:11.541Z,101090.01
2018-06-29T01:47:42.969Z,101090.52
2018-06-29T01:50:12.647Z,101093.19
2018-06-29T01:52:43.794Z,101098.48
2018-06-29T01:55:14.079Z,101087.06
2018-06-29T01:57:44.005Z,101086.70
2018-06-29T02:00:13.126Z,101081.89
2018-06-29T02:02:43.678Z,101088.08
2018-06-29T02:05:15.305Z,101086.77
2018-06-29T02:07:46.148Z,101073.59
2018-06-29T02:10:15.673Z,101073.64
2018-06-29T02:12:47.466Z,101075.88
2018-06-29T02:15:18.886Z,101072.83
2018-06-29T02:17:52.836Z,101074.66
2018-06-29T02:20:22.919Z,101069.39
2018-06-29T02:22:52.295Z,101068.09
2018-06-29T02:25:22.246Z,101070.31
2018-06-29T02:27:53.661Z,101071.64
2018-06-29T02:30:23.889Z,101064.63
2018-06-29T02:32:54.245Z,101068.19
2018-06-29T02:35:23.436Z,101067.31
2018-06-29T02:37:54.946Z,101058.10
2018-06-29T02:40:24.112Z,101061.19
2018-06-29T02:42:54.329Z,101062.95
2018-06-29T02:45:24.493Z,101059.00
2018-06-29T02:47:55.033Z,101056.38
2018-06-29T02:50:25.082Z,101056.81
2018-06-29T02:52:56.349Z,101053.30
2018-06-29T02:55:26.888Z,101062.53
2018-06-29T02:57:56.751Z,101052.42
2018-06-29T03:00:27.708Z,101049.33
2018-06-29T03:02:58.217Z,101042.29
2018-06-29T03:05:29.937Z,101041.39
2018-06-29T03:08:00.965Z,101034.36
2018-06-29T03:10:30.221Z,101041.81
2018-06-29T03:13:00.966Z,101032.53
2018-06-29T03:15:30.815Z,101033.84
2018-06-29T03:18:01.115Z,101030.31
2018-06-29T03:20:33.512Z,101027.66
2018-06-29T03:23:03.727Z,101025.44
2018-06-29T03:25:35.954Z,101016.14
2018-06-29T03:28:05.944Z,101016.13
2018-06-29T03:30:37.485Z,101017.41
2018-06-29T03:33:08.705Z,101014.30
2018-06-29T03:35:38.979Z,101011.16
2018-06-29T03:38:10.960Z,101011.11
2018-06-29T03:40:41.766Z,101007.10
2018-06-29T03:43:12.976Z,101006.56
2018-06-29T03:45:43.176Z,101004.73
2018-06-29T03:48:13.068Z,101000.63
2018-06-29T03:50:44.592Z,101003.37
2018-06-29T03:53:14.139Z,100998.40
2018-06-29T03:55:44.721Z,100995.75
2018-06-29T03:58:15.130Z,100991.50
2018-06-29T04:00:46.990Z,100988.27
2018-06-29T04:03:18.922Z,100987.59
2018-06-29T04:05:49.396Z,100996.67
2018-06-29T04:08:20.486Z,100992.05
2018-06-29T04:10:50.442Z,100997.27
2018-06-29T04:13:21.978Z,100996.06
2018-06-29T04:15:53.253Z,100996.11
2018-06-29T04:18:23.870Z,100995.05
2018-06-29T04:20:55.261Z,100984.06
2018-06-29T04:23:24.736Z,100982.32
2018-06-29T04:25:54.784Z,100982.66
2018-06-29T04:28:25.948Z,100982.06
2018-06-29T04:30:57.893Z,100979.81
2018-06-29T04:33:28.005Z,100985.25
2018-06-29T04:35:59.259Z,100987.50
2018-06-29T04:38:30.852Z,100981.32
2018-06-29T04:41:01.602Z,100981.38
2018-06-29T04:43:33.178Z,100985.81
2018-06-29T04:46:02.963Z,100976.27
2018-06-29T04:48:33.275Z,100976.23
2018-06-29T04:51:02.522Z,100975.31
2018-06-29T04:53:33.171Z,100966.03
2018-06-29T04:56:04.508Z,100961.75
2018-06-29T04:58:36.690Z,100962.09
2018-06-29T05:01:06.628Z,100964.27
2018-06-29T05:03:38.574Z,100968.40
2018-06-29T05:06:08.543Z,100966.89
2018-06-29T05:08:40.088Z,100966.55
2018-06-29T05:11:10.288Z,100967.27
2018-06-29T05:13:39.745Z,100966.13
2018-06-29T05:16:12.109Z,100974.39
2018-06-29T05:18:41.765Z,100966.66
2018-06-29T05:21:13.033Z,100963.42
2018-06-29T05:23:43.262Z,100963.25
2018-06-29T05:26:15.380Z,100966.90
2018-06-29T05:28:45.305Z,100965.15
2018-06-29T05:31:14.759Z,100961.34
2018-06-29T05:33:47.159Z,100958.72
2018-06-29T05:36:16.788Z,100952.86
2018-06-29T05:38:46.236Z,100960.11
2018-06-29T05:41:16.451Z,100960.57
2018-06-29T05:43:47.419Z,100951.02
2018-06-29T05:46:20.291Z,100951.53
2018-06-29T05:48:56.120Z,100958.83
2018-06-29T05:51:25.296Z,100962.16
2018-06-29T05:53:55.910Z,100963.43
2018-06-29T05:56:27.892Z,100967.48
2018-06-29T05:58:59.023Z,100967.75
2018-06-29T06:01:28.300Z,100967.30
2018-06-29T06:04:00.938Z,100959.91
2018-06-29T06:06:30.279Z,100966.63
2018-06-29T06:09:02.455Z,100960.06
2018-06-29T06:11:34.098Z,100958.00
2018-06-29T06:14:05.920Z,100963.31
2018-06-29T06:16:37.670Z,100964.59
2018-06-29T06:19:24.325Z,100958.95
2018-06-29T06:21:54.683Z,100971.40
2018-06-29T06:24:26.780Z,100964.72
2018-06-29T06:26:56.991Z,100974.98
2018-06-29T06:29:27.447Z,100974.98
2018-06-29T06:31:57.740Z,100973.83
2018-06-29T06:34:28.140Z,100969.13
2018-06-29T06:36:59.107Z,100965.08
2018-06-29T06:39:28.765Z,100957.55
2018-06-29T06:42:00.910Z,100962.44
2018-06-29T06:44:31.428Z,100963.45
2018-06-29T06:47:02.749Z,100965.80
2018-06-29T06:49:33.813Z,100969.86
2018-06-29T06:52:03.379Z,100961.91
2018-06-29T06:54:34.206Z,100956.59
2018-06-29T06:57:04.710Z,100955.91
2018-06-29T06:59:35.727Z,100960.72
2018-06-29T07:02:08.158Z,100968.27
2018-06-29T07:04:39.081Z,100962.61
2018-06-29T07:07:08.214Z,100960.20
2018-06-29T07:09:38.571Z,100962.19
2018-06-29T07:12:10.574Z,100953.39
2018-06-29T07:14:39.973Z,100958.77
2018-06-29T07:17:10.425Z,100956.33
2018-06-29T07:19:41.848Z,100957.98
2018-06-29T07:22:12.748Z,100954.77
2018-06-29T07:24:44.714Z,100959.78
2018-06-29T07:27:14.043Z,100959.63
2018-06-29T07:29:43.241Z,100957.30
2018-06-29T07:32:14.145Z,100950.29
2018-06-29T07:34:44.858Z,100955.90
2018-06-29T07:37:17.297Z,100950.72
2018-06-29T07:39:46.629Z,100949.12
2018-06-29T07:42:17.637Z,100950.65
2018-06-29T07:44:46.871Z,100952.53
2018-06-29T07:47:18.458Z,100946.00
2018-06-29T07:49:49.450Z,100940.53
2018-06-29T07:52:18.693Z,100939.52
2018-06-29T07:54:49.588Z,100926.67
2018-06-29T07:57:19.553Z,100923.83
2018-06-29T07:59:49.382Z,100916.50
2018-06-29T08:02:18.524Z,100919.25
2018-06-29T08:04:47.667Z,100915.20
2018-06-29T08:07:16.822Z,100926.73
2018-06-29T08:09:45.961Z,100919.41
2018-06-29T08:12:15.084Z,100919.51
2018-06-29T08:14:44.439Z,100910.85
2018-06-29T08:17:13.654Z,100906.80
2018-06-29T08:19:42.787Z,100920.06
2018-06-29T08:22:13.669Z,100912.89
2018-06-29T08:25:00.189Z,100908.81
2018-06-29T08:27:29.337Z,100912.34
2018-06-29T08:29:58.488Z,100905.83
2018-06-29T08:32:27.669Z,100900.41
2018-06-29T08:34:56.825Z,100904.85
2018-06-29T08:37:25.998Z,100901.18
2018-06-29T08:39:55.156Z,100900.92
2018-06-29T08:42:24.379Z,100898.88
2018-06-29T08:44:53.562Z,100894.18
2018-06-29T08:47:22.720Z,100899.95
2018-06-29T08:49:51.880Z,100893.27
2018-06-29T08:52:21.308Z,100890.89
2018-06-29T08:54:50.472Z,100881.75
2018-06-29T08:57:19.624Z,100877.84
2018-06-29T08:59:48.807Z,100877.59
2018-06-29T09:02:17.935Z,100882.02
2018-06-29T09:04:47.083Z,100876.74
2018-06-29T09:07:16.238Z,100866.24
2018-06-29T09:09:45.333Z,100869.16
2018-06-29T09:12:14.520Z,100873.15
2018-06-29T09:14:43.662Z,100872.95
2018-06-29T09:17:12.851Z,100865.95
2018-06-29T09:19:41.954Z,100865.22
2018-06-29T09:22:11.104Z,100852.00
2018-06-29T09:24:40.270Z,100839.14
2018-06-29T09:27:09.431Z,100847.67
2018-06-29T09:29:38.591Z,100847.22
2018-06-29T09:32:07.733Z,100849.26
2018-06-29T09:34:36.919Z,100841.73
2018-06-29T09:37:06.202Z,100841.48
2018-06-29T09:39:35.344Z,100834.36
2018-06-29T09:42:04.522Z,100834.32
2018-06-29T09:44:33.650Z,100829.47
2018-06-29T09:47:02.862Z,100831.22
2018-06-29T09:49:32.101Z,100824.86
2018-06-29T09:52:01.283Z,100827.66
2018-06-29T09:54:30.558Z,100834.27
2018-06-29T09:56:59.839Z,100835.82
2018-06-29T09:59:29.066Z,100830.54
2018-06-29T10:01:58.215Z,100826.04
2018-06-29T10:04:27.535Z,100827.81
2018-06-29T10:06:57.249Z,100815.31
2018-06-29T10:09:26.387Z,100828.94
2018-06-29T10:11:55.521Z,100833.33
2018-06-29T10:14:24.706Z,100821.22
2018-06-29T10:16:53.872Z,100809.95
2018-06-29T10:19:22.997Z,100816.36
2018-06-29T10:21:52.125Z,100803.06
2018-06-29T10:24:21.336Z,100804.05
2018-06-29T10:26:50.438Z,100800.20
2018-06-29T10:29:19.600Z,100797.83
2018-06-29T10:31:48.821Z,100796.94
2018-06-29T10:34:18.101Z,100793.72
2018-06-29T10:36:47.306Z,100785.47
2018-06-29T10:39:16.787Z,100781.38
2018-06-29T10:41:45.898Z,100788.47
2018-06-29T10:44:14.993Z,100783.85
2018-06-29T10:46:44.121Z,100788.84
2018-06-29T10:49:13.299Z,100771.64
2018-06-29T10:51:42.462Z,100771.08
2018-06-29T10:54:11.655Z,100778.12
2018-06-29T10:56:40.818Z,100769.55
2018-06-29T10:59:09.947Z,100764.24
2018-06-29T11:01:39.073Z,100765.98
2018-06-29T11:04:08.198Z,100755.53
2018-06-29T11:06:37.351Z,100766.88
2018-06-29T11:09:09.566Z,100759.30
2018-06-29T11:11:38.667Z,100755.77
2018-06-29T11:14:08.634Z,100754.84
2018-06-29T11:16:37.902Z,100753.81
2018-06-29T11:19:07.335Z,100753.00
2018-06-29T11:21:36.492Z,100758.99
2018-06-29T11:24:05.644Z,100751.20
2018-06-29T11:26:34.782Z,100739.08
2018-06-29T11:29:03.893Z,100744.16
2018-06-29T11:31:33.013Z,100745.52
2018-06-29T11:34:02.111Z,100743.66
2018-06-29T11:36:31.228Z,100738.81
2018-06-29T11:39:00.363Z,100741.78
2018-06-29T11:41:29.637Z,100739.22
2018-06-29T11:44:05.482Z,100738.30
2018-06-29T11:46:34.632Z,100731.48
2018-06-29T11:49:05.480Z,100734.58
2018-06-29T11:51:34.607Z,100727.81
2018-06-29T11:54:03.848Z,100732.42
2018-06-29T11:56:32.986Z,100728.84
2018-06-29T11:59:02.079Z,100725.17
2018-06-29T12:01:31.280Z,100728.82
2018-06-29T12:04:07.024Z,100717.46
2018-06-29T12:06:36.334Z,100723.19
2018-06-29T12:09:09.188Z,100714.65
2018-06-29T12:11:38.361Z,100712.28
2018-06-29T12:14:07.508Z,100708.30
2018-06-29T12:16:36.715Z,100703.38
2018-06-29T12:19:05.894Z,100705.42
2018-06-29T12:21:35.089Z,100699.28
2018-06-29T12:24:04.210Z,100699.37
2018-06-29T12:26:33.357Z,100696.20
2018-06-29T12:29:02.494Z,100694.94
2018-06-29T12:31:31.637Z,100691.77
2018-06-29T12:34:00.794Z,100696.58
2018-06-29T12:36:30.061Z,100690.58
2018-06-29T12:38:59.191Z,100689.22
2018-06-29T12:41:28.451Z,100681.14
2018-06-29T12:43:57.585Z,100677.72
2018-06-29T12:46:26.678Z,100685.33
2018-06-29T12:48:55.779Z,100673.76
2018-06-29T12:51:24.967Z,100668.58
2018-06-29T12:53:54.055Z,100658.39
2018-06-29T12:56:23.167Z,100654.84
2018-06-29T12:58:52.483Z,100657.91
2018-06-29T13:01:21.678Z,100653.29
2018-06-29T13:03:50.793Z,100651.56
2018-06-29T13:06:20.007Z,100655.50
2018-06-29T13:08:49.145Z,100657.89
2018-06-29T13:11:18.377Z,100655.41
2018-06-29T13:13:47.557Z,100651.23
2018-06-29T13:16:16.727Z,100646.13
2018-06-29T13:18:45.940Z,100649.38
2018-06-29T13:21:15.055Z,100642.81
2018-06-29T13:23:44.217Z,100638.42
2018-06-29T13:26:13.354Z,100631.27
2018-06-29T13:28:42.445Z,100626.54
2018-06-29T13:31:11.661Z,100629.95
2018-06-29T13:33:40.847Z,100617.52
2018-06-29T13:36:09.978Z,100618.06
2018-06-29T13:38:39.110Z,100618.46
2018-06-29T13:41:08.234Z,100609.52
2018-06-29T13:43:37.525Z,100606.02
2018-06-29T13:46:06.718Z,100604.75
2018-06-29T13:48:35.825Z,100595.22
2018-06-29T13:51:05.032Z,100597.06
2018-06-29T13:53:34.299Z,100587.84
2018-06-29T13:56:03.549Z,100591.79
2018-06-29T13:58:32.826Z,100597.89
2018-06-29T14:01:02.013Z,100592.21
2018-06-29T14:03:31.154Z,100597.12
2018-06-29T14:06:00.330Z,100600.47
2018-06-29T14:08:29.451Z,100591.62
2018-06-29T14:10:58.645Z,100592.50
2018-06-29T14:13:27.936Z,100602.55
2018-06-29T14:15:57.112Z,100593.55
2018-06-29T14:18:26.279Z,100598.34
2018-06-29T14:20:55.438Z,100601.41
2018-06-29T14:23:24.750Z,100604.02
2018-06-29T14:25:53.929Z,100601.09
2018-06-29T14:28:23.192Z,100599.14
2018-06-29T14:30:52.420Z,100603.53
2018-06-29T14:33:21.746Z,100603.48
2018-06-29T14:35:50.882Z,100610.45
2018-06-29T14:38:20.042Z,100612.45
2018-06-29T14:40:49.201Z,100601.57
2018-06-29T14:43:18.379Z,100600.63
2018-06-29T14:45:47.598Z,100606.73
2018-06-29T14:48:16.798Z,100611.70
2018-06-29T14:50:46.026Z,100597.52
2018-06-29T14:53:15.155Z,100571.19
2018-06-29T14:55:44.254Z,100610.46
2018-06-29T14:58:13.440Z,100619.41
2018-06-29T15:00:42.583Z,100608.36
2018-06-29T15:03:11.723Z,100608.95
2018-06-29T15:05:40.875Z,100618.44
2018-06-29T15:08:10.032Z,100608.14
2018-06-29T15:10:39.168Z,100599.37
2018-06-29T15:13:08.327Z,100595.93
2018-06-29T15:15:37.835Z,100595.11
2018-06-29T15:18:07.588Z,100588.58
2018-06-29T15:20:36.809Z,100594.80
2018-06-29T15:23:06.329Z,100591.02
2018-06-29T15:25:35.872Z,100597.85
2018-06-29T15:28:05.969Z,100585.48
2018-06-29T15:30:35.292Z,100593.45
2018-06-29T15:33:04.526Z,100584.67
2018-06-29T15:35:33.652Z,100591.35
2018-06-29T15:38:02.820Z,100591.77
2018-06-29T15:40:31.950Z,100594.45
2018-06-29T15:43:01.461Z,100602.98
2018-06-29T15:45:30.732Z,100603.88
2018-06-29T15:47:59.908Z,100617.73
2018-06-29T15:50:29.076Z,100619.23
2018-06-29T15:52:58.229Z,100645.94
2018-06-29T15:55:27.447Z,100640.48
2018-06-29T15:57:56.569Z,100648.48
2018-06-29T16:00:25.726Z,100655.19
2018-06-29T16:02:54.846Z,100649.02
2018-06-29T16:05:24.038Z,100646.45
2018-06-29T16:07:53.518Z,100658.38
2018-06-29T16:10:22.702Z,100665.73
2018-06-29T16:12:52.170Z,100674.84
2018-06-29T16:15:21.329Z,100665.22
2018-06-29T16:17:50.547Z,100690.59
2018-06-29T16:20:19.838Z,100677.30
2018-06-29T16:22:48.985Z,100670.31
2018-06-29T16:25:18.171Z,100671.50
2018-06-29T16:27:47.474Z,100667.10
2018-06-29T16:30:16.882Z,100666.50
2018-06-29T16:32:45.970Z,100686.70
2018-06-29T16:35:15.144Z,100680.56
2018-06-29T16:37:44.830Z,100695.33
2018-06-29T16:40:13.970Z,100699.94
2018-06-29T16:42:43.169Z,100687.47
2018-06-29T16:45:12.483Z,100705.63
2018-06-29T16:47:42.140Z,100700.95
2018-06-29T16:50:11.776Z,100697.83
2018-06-29T16:52:40.983Z,100706.36
2018-06-29T16:55:10.196Z,100697.65
2018-06-29T16:57:39.341Z,100702.62
2018-06-29T17:00:08.953Z,100705.75
2018-06-29T17:02:38.377Z,100715.10
2018-06-29T17:05:07.590Z,100716.67
2018-06-29T17:07:36.717Z,100721.08
2018-06-29T17:10:05.973Z,100720.64
2018-06-29T17:12:35.087Z,100725.75
2018-06-29T17:15:04.272Z,100726.20
2018-06-29T17:17:33.458Z,100726.34
2018-06-29T17:20:02.682Z,100725.10
2018-06-29T17:22:31.847Z,100724.56
2018-06-29T17:25:01.054Z,100742.39
2018-06-29T17:27:31.942Z,100725.28
2018-06-29T17:30:01.087Z,100745.99
2018-06-29T17:32:30.218Z,100756.26
2018-06-29T17:35:02.336Z,100756.61
2018-06-29T17:37:33.819Z,100751.55
2018-06-29T17:40:03.963Z,100750.92
2018-06-29T17:42:34.053Z,100743.66
2018-06-29T17:45:04.885Z,100748.91
2018-06-29T17:47:35.561Z,100750.17
2018-06-29T17:50:07.520Z,100750.01
2018-06-29T17:52:39.126Z,100749.01
2018-06-29T17:55:08.283Z,100754.95
2018-06-29T17:57:37.464Z,100755.53
2018-06-29T18:00:07.342Z,100752.56
2018-06-29T18:02:36.542Z,100753.12
2018-06-29T18:05:05.843Z,100763.97
2018-06-29T18:07:35.331Z,100750.32
2018-06-29T18:10:04.866Z,100769.02
2018-06-29T18:12:34.269Z,100763.02
2018-06-29T18:15:03.636Z,100774.28
2018-06-29T18:17:33.317Z,100771.34
2018-06-29T18:20:02.864Z,100777.66
2018-06-29T18:22:32.350Z,100775.59
2018-06-29T18:25:01.492Z,100778.84
2018-06-29T18:27:30.710Z,100792.25
2018-06-29T18:29:59.852Z,100771.17
2018-06-29T18:32:29.159Z,100778.81
2018-06-29T18:34:58.347Z,100774.09
2018-06-29T18:37:27.569Z,100780.36
2018-06-29T18:39:56.685Z,100771.64
2018-06-29T18:42:25.846Z,100785.09
2018-06-29T18:44:55.228Z,100786.21
2018-06-29T18:47:24.427Z,100790.86
2018-06-29T18:49:53.587Z,100790.27
2018-06-29T18:52:22.725Z,100798.88
2018-06-29T18:54:51.836Z,100796.95
2018-06-29T18:57:21.014Z,100802.11
2018-06-29T18:59:50.152Z,100799.66
2018-06-29T19:02:19.397Z,100802.03
2018-06-29T19:04:48.584Z,100801.73
2018-06-29T19:07:17.748Z,100811.58
2018-06-29T19:09:46.879Z,100814.41
2018-06-29T19:12:16.057Z,100814.97
2018-06-29T19:14:45.185Z,100818.19
2018-06-29T19:17:14.457Z,100844.87
2018-06-29T19:19:43.582Z,100819.38
2018-06-29T19:22:12.866Z,100829.27
2018-06-29T19:24:42.139Z,100834.29
2018-06-29T19:27:11.348Z,100850.42
2018-06-29T19:29:40.529Z,100839.02
2018-06-29T19:32:09.831Z,100837.30
2018-06-29T19:34:38.981Z,100857.78
2018-06-29T19:37:08.145Z,100845.95
2018-06-29T19:39:37.388Z,100852.25
2018-06-29T19:42:06.565Z,100854.61
2018-06-29T19:44:35.719Z,100847.66
2018-06-29T19:47:04.924Z,100864.50
2018-06-29T19:49:34.101Z,100854.00
2018-06-29T19:52:03.261Z,100868.69
2018-06-29T19:54:32.417Z,100876.78
2018-06-29T19:57:01.570Z,100870.33
2018-06-29T19:59:30.715Z,100877.09
2018-06-29T20:02:01.149Z,100877.65
2018-06-29T20:04:31.479Z,100886.20
2018-06-29T20:07:02.028Z,100879.66
2018-06-29T20:09:31.283Z,100881.09
2018-06-29T20:12:02.895Z,100884.75
2018-06-29T20:14:32.150Z,100884.47
2018-06-29T20:17:03.449Z,100888.20
2018-06-29T20:19:33.266Z,100892.67
2018-06-29T20:22:02.490Z,100906.89
2018-06-29T20:24:33.278Z,100897.70
2018-06-29T20:27:04.347Z,100908.42
2018-06-29T20:29:33.937Z,100903.20
2018-06-29T20:32:05.450Z,100910.34
2018-06-29T20:34:36.429Z,100911.35
2018-06-29T20:37:07.371Z,100920.73
2018-06-29T20:39:37.052Z,100913.36
2018-06-29T20:42:06.417Z,100918.34
2018-06-29T20:44:36.767Z,100910.49
2018-06-29T20:47:06.820Z,100920.27
2018-06-29T20:49:36.471Z,100924.34
2018-06-29T20:52:07.295Z,100933.66
2018-06-29T20:54:37.080Z,100942.55
2018-06-29T20:57:09.214Z,100943.47
2018-06-29T20:59:38.490Z,100941.38
2018-06-29T21:02:09.791Z,100949.81
2018-06-29T21:04:40.820Z,100949.45
2018-06-29T21:07:12.732Z,100960.48
2018-06-29T21:09:46.544Z,100948.67
2018-06-29T21:12:15.739Z,100952.27
2018-06-29T21:14:45.153Z,100949.23
2018-06-29T21:17:15.205Z,100955.43
2018-06-29T21:19:45.773Z,100955.97
2018-06-29T21:22:17.131Z,100962.18
2018-06-29T21:24:48.720Z,100969.73
2018-06-29T21:27:20.936Z,100971.97
2018-06-29T21:29:50.255Z,100976.41
2018-06-29T21:32:21.170Z,100976.92
2018-06-29T21:34:52.859Z,100981.77
2018-06-29T21:37:24.040Z,100981.36
2018-06-29T21:39:54.457Z,100987.10
2018-06-29T21:42:23.641Z,100988.88
2018-06-29T21:44:55.704Z,100995.06
2018-06-29T21:47:25.391Z,100999.07
2018-06-29T21:49:55.674Z,100989.88
2018-06-29T21:52:26.500Z,100997.84
2018-06-29T21:54:57.790Z,101007.97
2018-06-29T21:57:26.946Z,101010.63
2018-06-29T21:59:56.827Z,101011.56
2018-06-29T22:02:27.399Z,101026.94
2018-06-29T22:04:59.223Z,101025.62
2018-06-29T22:07:30.756Z,101029.15
2018-06-29T22:09:59.996Z,101030.07
2018-06-29T22:12:31.242Z,101037.54
2018-06-29T22:15:00.899Z,101033.60
2018-06-29T22:17:31.801Z,101037.59
2018-06-29T22:20:02.095Z,101029.27
2018-06-29T22:22:33.292Z,101041.56
2018-06-29T22:25:02.986Z,101036.33
2018-06-29T22:27:33.096Z,101041.61
2018-06-29T22:30:03.545Z,101041.61
2018-06-29T22:32:33.436Z,101046.03
2018-06-29T22:35:03.493Z,101046.00
2018-06-29T22:37:32.696Z,101043.36
2018-06-29T22:40:04.575Z,101057.84
2018-06-29T22:42:36.764Z,101047.75
2018-06-29T22:45:10.657Z,101050.86
2018-06-29T22:47:40.210Z,101066.20
2018-06-29T22:50:11.827Z,101078.91
2018-06-29T22:52:42.174Z,101068.42
2018-06-29T22:55:13.316Z,101067.97
2018-06-29T22:57:44.458Z,101071.91
2018-06-29T23:00:14.322Z,101073.69
2018-06-29T23:02:46.311Z,101076.74
2018-06-29T23:05:17.471Z,101075.42
2018-06-29T23:07:47.679Z,101079.39
2018-06-29T23:10:18.374Z,101084.64
2018-06-29T23:12:49.324Z,101087.69
2018-06-29T23:15:19.195Z,101092.94
2018-06-29T23:17:49.701Z,101093.38
2018-06-29T23:20:20.386Z,101095.56
2018-06-29T23:22:49.627Z,101090.77
2018-06-29T23:25:20.059Z,101093.83
2018-06-29T23:27:50.500Z,101096.45
2018-06-29T23:30:21.356Z,101099.08
2018-06-29T23:32:51.546Z,101096.87
2018-06-29T23:35:21.199Z,101106.94
2018-06-29T23:37:53.111Z,101112.22
2018-06-29T23:40:22.761Z,101104.77
2018-06-29T23:42:53.162Z,101108.69
2018-06-29T23:45:22.714Z,101109.98
2018-06-29T23:47:53.635Z,101109.96
2018-06-29T23:50:23.968Z,101110.86
2018-06-29T23:52:56.055Z,101114.34
2018-06-29T23:55:28.513Z,101117.83
2018-06-29T23:57:58.001Z,101112.12
